sensor_id;sensor_type;location;lat;lon;timestamp;P1;durP1;ratioP1;P2;durP2;ratioP2
15931;SDS011;8065;49.520;11.284;2023-04-12T00:00:02;3.40;;;2.60;;
15931;SDS011;8065;49.520;11.284;2023-04-12T00:02:30;3.20;;;2.37;;
15931;SDS011;8065;49.520;11.284;2023-04-12T00:04:59;2.67;;;2.10;;
15931;SDS011;8065;49.520;11.284;2023-04-12T00:07:27;2.30;;;1.80;;
15931;SDS011;8065;49.520;11.284;2023-04-12T00:09:53;2.90;;;2.03;;
15931;SDS011;8065;49.520;11.284;2023-04-12T00:12:20;2.57;;;1.97;;
15931;SDS011;8065;49.520;11.284;2023-04-12T00:14:48;3.33;;;2.00;;
15931;SDS011;8065;49.520;11.284;2023-04-12T00:17:14;2.20;;;1.67;;
15931;SDS011;8065;49.520;11.284;2023-04-12T00:19:41;2.17;;;1.77;;
15931;SDS011;8065;49.520;11.284;2023-04-12T00:22:08;2.67;;;1.77;;
15931;SDS011;8065;49.520;11.284;2023-04-12T00:24:37;5.37;;;2.00;;
15931;SDS011;8065;49.520;11.284;2023-04-12T00:27:04;2.57;;;1.93;;
15931;SDS011;8065;49.520;11.284;2023-04-12T00:29:31;3.47;;;1.80;;
15931;SDS011;8065;49.520;11.284;2023-04-12T00:31:59;4.30;;;1.80;;
15931;SDS011;8065;49.520;11.284;2023-04-12T00:34:27;4.10;;;1.97;;
15931;SDS011;8065;49.520;11.284;2023-04-12T00:36:54;2.63;;;1.83;;
15931;SDS011;8065;49.520;11.284;2023-04-12T00:39:21;4.23;;;2.23;;
15931;SDS011;8065;49.520;11.284;2023-04-12T00:41:47;4.23;;;2.13;;
15931;SDS011;8065;49.520;11.284;2023-04-12T00:44:14;4.13;;;1.90;;
15931;SDS011;8065;49.520;11.284;2023-04-12T00:46:42;3.83;;;1.80;;
15931;SDS011;8065;49.520;11.284;2023-04-12T00:49:10;6.63;;;2.17;;
15931;SDS011;8065;49.520;11.284;2023-04-12T00:51:37;3.77;;;1.77;;
15931;SDS011;8065;49.520;11.284;2023-04-12T00:54:05;3.13;;;2.00;;
15931;SDS011;8065;49.520;11.284;2023-04-12T00:56:32;2.30;;;1.80;;
15931;SDS011;8065;49.520;11.284;2023-04-12T00:58:59;2.07;;;1.70;;
15931;SDS011;8065;49.520;11.284;2023-04-12T01:01:26;5.90;;;1.90;;
15931;SDS011;8065;49.520;11.284;2023-04-12T01:03:53;3.53;;;1.97;;
15931;SDS011;8065;49.520;11.284;2023-04-12T01:06:27;4.33;;;1.93;;
15931;SDS011;8065;49.520;11.284;2023-04-12T01:09:05;2.77;;;1.77;;
15931;SDS011;8065;49.520;11.284;2023-04-12T01:11:42;2.67;;;1.80;;
15931;SDS011;8065;49.520;11.284;2023-04-12T01:14:12;2.63;;;1.90;;
15931;SDS011;8065;49.520;11.284;2023-04-12T01:16:47;2.27;;;1.90;;
15931;SDS011;8065;49.520;11.284;2023-04-12T01:19:27;2.03;;;1.70;;
15931;SDS011;8065;49.520;11.284;2023-04-12T01:22:09;2.20;;;1.80;;
15931;SDS011;8065;49.520;11.284;2023-04-12T01:24:42;2.17;;;1.97;;
15931;SDS011;8065;49.520;11.284;2023-04-12T01:30:07;3.23;;;1.70;;
15931;SDS011;8065;49.520;11.284;2023-04-12T01:32:38;2.03;;;1.80;;
15931;SDS011;8065;49.520;11.284;2023-04-12T01:35:09;2.00;;;1.80;;
15931;SDS011;8065;49.520;11.284;2023-04-12T01:37:36;3.50;;;2.00;;
15931;SDS011;8065;49.520;11.284;2023-04-12T01:40:03;3.07;;;2.10;;
15931;SDS011;8065;49.520;11.284;2023-04-12T01:42:31;2.40;;;1.83;;
15931;SDS011;8065;49.520;11.284;2023-04-12T01:44:59;2.93;;;2.10;;
15931;SDS011;8065;49.520;11.284;2023-04-12T01:47:26;3.03;;;1.93;;
15931;SDS011;8065;49.520;11.284;2023-04-12T01:49:54;2.63;;;1.90;;
15931;SDS011;8065;49.520;11.284;2023-04-12T01:52:29;2.40;;;1.80;;
15931;SDS011;8065;49.520;11.284;2023-04-12T01:55:00;4.70;;;2.00;;
15931;SDS011;8065;49.520;11.284;2023-04-12T01:57:29;2.90;;;2.07;;
15931;SDS011;8065;49.520;11.284;2023-04-12T01:59:58;2.67;;;2.10;;
15931;SDS011;8065;49.520;11.284;2023-04-12T02:02:30;5.00;;;2.40;;
15931;SDS011;8065;49.520;11.284;2023-04-12T02:04:57;5.53;;;2.50;;
15931;SDS011;8065;49.520;11.284;2023-04-12T02:07:25;4.57;;;1.87;;
15931;SDS011;8065;49.520;11.284;2023-04-12T02:09:52;3.67;;;2.00;;
15931;SDS011;8065;49.520;11.284;2023-04-12T02:12:18;4.53;;;1.90;;
15931;SDS011;8065;49.520;11.284;2023-04-12T02:14:45;4.07;;;2.07;;
15931;SDS011;8065;49.520;11.284;2023-04-12T02:17:17;3.23;;;2.30;;
15931;SDS011;8065;49.520;11.284;2023-04-12T02:19:44;2.17;;;1.97;;
15931;SDS011;8065;49.520;11.284;2023-04-12T02:22:11;4.40;;;2.10;;
15931;SDS011;8065;49.520;11.284;2023-04-12T02:24:38;3.07;;;1.90;;
15931;SDS011;8065;49.520;11.284;2023-04-12T02:27:04;2.70;;;1.80;;
15931;SDS011;8065;49.520;11.284;2023-04-12T02:29:31;2.90;;;1.97;;
15931;SDS011;8065;49.520;11.284;2023-04-12T02:31:57;3.83;;;2.00;;
15931;SDS011;8065;49.520;11.284;2023-04-12T02:34:25;4.40;;;1.80;;
15931;SDS011;8065;49.520;11.284;2023-04-12T02:36:58;4.00;;;2.00;;
15931;SDS011;8065;49.520;11.284;2023-04-12T02:39:24;3.00;;;2.00;;
15931;SDS011;8065;49.520;11.284;2023-04-12T02:41:53;3.63;;;1.77;;
15931;SDS011;8065;49.520;11.284;2023-04-12T02:44:20;3.17;;;1.73;;
15931;SDS011;8065;49.520;11.284;2023-04-12T02:46:47;4.13;;;2.00;;
15931;SDS011;8065;49.520;11.284;2023-04-12T02:49:13;4.83;;;2.50;;
15931;SDS011;8065;49.520;11.284;2023-04-12T02:51:41;5.10;;;2.07;;
15931;SDS011;8065;49.520;11.284;2023-04-12T02:54:07;2.20;;;2.00;;
15931;SDS011;8065;49.520;11.284;2023-04-12T02:56:34;3.67;;;2.33;;
15931;SDS011;8065;49.520;11.284;2023-04-12T02:59:01;4.23;;;2.03;;
15931;SDS011;8065;49.520;11.284;2023-04-12T03:01:27;3.40;;;1.90;;
15931;SDS011;8065;49.520;11.284;2023-04-12T03:03:53;2.03;;;1.83;;
15931;SDS011;8065;49.520;11.284;2023-04-12T03:06:20;2.70;;;1.83;;
15931;SDS011;8065;49.520;11.284;2023-04-12T03:08:48;5.40;;;2.20;;
15931;SDS011;8065;49.520;11.284;2023-04-12T03:11:14;5.47;;;2.27;;
15931;SDS011;8065;49.520;11.284;2023-04-12T03:13:40;2.90;;;1.97;;
15931;SDS011;8065;49.520;11.284;2023-04-12T03:16:20;3.30;;;1.90;;
15931;SDS011;8065;49.520;11.284;2023-04-12T03:18:47;3.17;;;1.97;;
15931;SDS011;8065;49.520;11.284;2023-04-12T03:21:15;4.30;;;2.00;;
15931;SDS011;8065;49.520;11.284;2023-04-12T03:23:42;2.30;;;1.63;;
15931;SDS011;8065;49.520;11.284;2023-04-12T03:26:10;5.07;;;2.10;;
15931;SDS011;8065;49.520;11.284;2023-04-12T03:28:36;2.33;;;1.87;;
15931;SDS011;8065;49.520;11.284;2023-04-12T03:31:03;3.97;;;2.20;;
15931;SDS011;8065;49.520;11.284;2023-04-12T03:33:29;4.73;;;2.20;;
15931;SDS011;8065;49.520;11.284;2023-04-12T03:35:56;5.93;;;1.90;;
15931;SDS011;8065;49.520;11.284;2023-04-12T03:38:22;2.80;;;1.80;;
15931;SDS011;8065;49.520;11.284;2023-04-12T03:40:49;2.40;;;1.90;;
15931;SDS011;8065;49.520;11.284;2023-04-12T03:43:17;4.23;;;1.83;;
15931;SDS011;8065;49.520;11.284;2023-04-12T03:45:43;4.27;;;2.20;;
15931;SDS011;8065;49.520;11.284;2023-04-12T03:48:10;3.70;;;2.40;;
15931;SDS011;8065;49.520;11.284;2023-04-12T03:50:36;3.87;;;1.73;;
15931;SDS011;8065;49.520;11.284;2023-04-12T03:53:08;2.43;;;1.80;;
15931;SDS011;8065;49.520;11.284;2023-04-12T03:55:34;5.33;;;2.00;;
15931;SDS011;8065;49.520;11.284;2023-04-12T03:58:01;3.60;;;1.83;;
15931;SDS011;8065;49.520;11.284;2023-04-12T04:00:30;2.87;;;2.10;;
15931;SDS011;8065;49.520;11.284;2023-04-12T04:02:56;5.93;;;2.30;;
15931;SDS011;8065;49.520;11.284;2023-04-12T04:05:27;3.37;;;2.20;;
15931;SDS011;8065;49.520;11.284;2023-04-12T04:07:54;3.67;;;2.13;;
15931;SDS011;8065;49.520;11.284;2023-04-12T04:10:24;3.70;;;2.00;;
15931;SDS011;8065;49.520;11.284;2023-04-12T04:12:51;4.30;;;2.37;;
15931;SDS011;8065;49.520;11.284;2023-04-12T04:15:17;4.33;;;2.20;;
15931;SDS011;8065;49.520;11.284;2023-04-12T04:17:45;4.17;;;2.17;;
15931;SDS011;8065;49.520;11.284;2023-04-12T04:20:13;3.60;;;2.07;;
15931;SDS011;8065;49.520;11.284;2023-04-12T04:22:40;4.87;;;2.50;;
15931;SDS011;8065;49.520;11.284;2023-04-12T04:25:06;3.17;;;1.97;;
15931;SDS011;8065;49.520;11.284;2023-04-12T04:27:34;4.13;;;1.90;;
15931;SDS011;8065;49.520;11.284;2023-04-12T04:30:02;3.83;;;2.20;;
15931;SDS011;8065;49.520;11.284;2023-04-12T04:32:30;7.23;;;2.27;;
15931;SDS011;8065;49.520;11.284;2023-04-12T04:34:59;5.80;;;2.47;;
15931;SDS011;8065;49.520;11.284;2023-04-12T04:37:25;3.57;;;2.13;;
15931;SDS011;8065;49.520;11.284;2023-04-12T04:39:53;2.80;;;2.20;;
15931;SDS011;8065;49.520;11.284;2023-04-12T04:42:20;4.67;;;2.50;;
15931;SDS011;8065;49.520;11.284;2023-04-12T04:44:46;4.67;;;2.43;;
15931;SDS011;8065;49.520;11.284;2023-04-12T04:47:15;2.80;;;2.17;;
15931;SDS011;8065;49.520;11.284;2023-04-12T04:49:42;3.47;;;2.23;;
15931;SDS011;8065;49.520;11.284;2023-04-12T04:52:10;2.97;;;2.00;;
15931;SDS011;8065;49.520;11.284;2023-04-12T04:54:37;2.77;;;2.10;;
15931;SDS011;8065;49.520;11.284;2023-04-12T04:57:04;2.80;;;2.13;;
15931;SDS011;8065;49.520;11.284;2023-04-12T04:59:31;5.70;;;2.80;;
15931;SDS011;8065;49.520;11.284;2023-04-12T05:01:58;4.63;;;2.03;;
15931;SDS011;8065;49.520;11.284;2023-04-12T05:04:25;6.83;;;2.70;;
15931;SDS011;8065;49.520;11.284;2023-04-12T05:06:51;6.73;;;2.37;;
15931;SDS011;8065;49.520;11.284;2023-04-12T05:09:19;10.40;;;3.00;;
15931;SDS011;8065;49.520;11.284;2023-04-12T05:11:45;2.50;;;2.17;;
15931;SDS011;8065;49.520;11.284;2023-04-12T05:14:12;3.03;;;1.90;;
15931;SDS011;8065;49.520;11.284;2023-04-12T05:16:38;4.30;;;2.17;;
15931;SDS011;8065;49.520;11.284;2023-04-12T05:19:05;4.67;;;2.53;;
15931;SDS011;8065;49.520;11.284;2023-04-12T05:21:31;3.97;;;2.13;;
15931;SDS011;8065;49.520;11.284;2023-04-12T05:23:58;3.63;;;2.00;;
15931;SDS011;8065;49.520;11.284;2023-04-12T05:26:26;3.10;;;2.43;;
15931;SDS011;8065;49.520;11.284;2023-04-12T05:28:53;5.83;;;2.77;;
15931;SDS011;8065;49.520;11.284;2023-04-12T05:31:19;5.27;;;2.60;;
15931;SDS011;8065;49.520;11.284;2023-04-12T05:33:46;7.77;;;2.70;;
15931;SDS011;8065;49.520;11.284;2023-04-12T05:36:13;6.20;;;2.93;;
15931;SDS011;8065;49.520;11.284;2023-04-12T05:38:39;6.10;;;2.77;;
15931;SDS011;8065;49.520;11.284;2023-04-12T05:41:07;6.70;;;3.37;;
15931;SDS011;8065;49.520;11.284;2023-04-12T05:43:35;4.07;;;3.00;;
15931;SDS011;8065;49.520;11.284;2023-04-12T05:46:02;3.83;;;2.93;;
15931;SDS011;8065;49.520;11.284;2023-04-12T05:48:29;4.53;;;3.00;;
15931;SDS011;8065;49.520;11.284;2023-04-12T05:50:56;3.90;;;3.10;;
15931;SDS011;8065;49.520;11.284;2023-04-12T05:53:23;6.17;;;3.27;;
15931;SDS011;8065;49.520;11.284;2023-04-12T05:55:49;8.13;;;3.87;;
15931;SDS011;8065;49.520;11.284;2023-04-12T05:58:18;5.90;;;3.07;;
15931;SDS011;8065;49.520;11.284;2023-04-12T06:00:46;4.77;;;3.03;;
15931;SDS011;8065;49.520;11.284;2023-04-12T06:03:13;5.20;;;2.90;;
15931;SDS011;8065;49.520;11.284;2023-04-12T06:05:40;4.93;;;3.07;;
15931;SDS011;8065;49.520;11.284;2023-04-12T06:08:06;6.27;;;2.87;;
15931;SDS011;8065;49.520;11.284;2023-04-12T06:10:34;6.77;;;3.03;;
15931;SDS011;8065;49.520;11.284;2023-04-12T06:13:00;5.07;;;2.90;;
15931;SDS011;8065;49.520;11.284;2023-04-12T06:15:27;5.37;;;3.20;;
15931;SDS011;8065;49.520;11.284;2023-04-12T06:17:57;5.07;;;2.90;;
15931;SDS011;8065;49.520;11.284;2023-04-12T06:20:24;6.53;;;2.83;;
15931;SDS011;8065;49.520;11.284;2023-04-12T06:22:51;6.57;;;2.97;;
15931;SDS011;8065;49.520;11.284;2023-04-12T06:25:17;8.07;;;3.77;;
15931;SDS011;8065;49.520;11.284;2023-04-12T06:27:44;9.50;;;3.27;;
15931;SDS011;8065;49.520;11.284;2023-04-12T06:30:11;6.10;;;3.23;;
15931;SDS011;8065;49.520;11.284;2023-04-12T06:32:38;5.23;;;2.97;;
15931;SDS011;8065;49.520;11.284;2023-04-12T06:35:06;6.23;;;3.23;;
15931;SDS011;8065;49.520;11.284;2023-04-12T06:37:33;5.10;;;2.70;;
15931;SDS011;8065;49.520;11.284;2023-04-12T06:40:00;5.43;;;2.90;;
15931;SDS011;8065;49.520;11.284;2023-04-12T06:42:26;5.13;;;3.47;;
15931;SDS011;8065;49.520;11.284;2023-04-12T06:44:53;6.30;;;3.23;;
15931;SDS011;8065;49.520;11.284;2023-04-12T06:47:19;5.30;;;3.10;;
15931;SDS011;8065;49.520;11.284;2023-04-12T06:49:47;7.53;;;4.70;;
15931;SDS011;8065;49.520;11.284;2023-04-12T06:52:17;3.60;;;3.20;;
15931;SDS011;8065;49.520;11.284;2023-04-12T06:54:43;4.87;;;3.53;;
15931;SDS011;8065;49.520;11.284;2023-04-12T06:57:10;5.47;;;3.10;;
15931;SDS011;8065;49.520;11.284;2023-04-12T06:59:36;5.13;;;2.83;;
15931;SDS011;8065;49.520;11.284;2023-04-12T07:02:03;5.83;;;3.60;;
15931;SDS011;8065;49.520;11.284;2023-04-12T07:04:30;6.57;;;3.80;;
15931;SDS011;8065;49.520;11.284;2023-04-12T07:06:57;9.57;;;3.97;;
15931;SDS011;8065;49.520;11.284;2023-04-12T07:09:25;4.83;;;3.47;;
15931;SDS011;8065;49.520;11.284;2023-04-12T07:11:51;5.47;;;3.40;;
15931;SDS011;8065;49.520;11.284;2023-04-12T07:14:18;6.50;;;4.07;;
15931;SDS011;8065;49.520;11.284;2023-04-12T07:16:44;5.53;;;3.90;;
15931;SDS011;8065;49.520;11.284;2023-04-12T07:19:11;5.93;;;4.20;;
15931;SDS011;8065;49.520;11.284;2023-04-12T07:21:37;7.60;;;3.57;;
15931;SDS011;8065;49.520;11.284;2023-04-12T07:24:04;7.43;;;3.67;;
15931;SDS011;8065;49.520;11.284;2023-04-12T07:26:32;4.40;;;3.57;;
15931;SDS011;8065;49.520;11.284;2023-04-12T07:28:59;7.07;;;4.10;;
15931;SDS011;8065;49.520;11.284;2023-04-12T07:31:25;5.67;;;3.40;;
15931;SDS011;8065;49.520;11.284;2023-04-12T07:33:54;4.73;;;3.47;;
15931;SDS011;8065;49.520;11.284;2023-04-12T07:36:21;4.13;;;3.03;;
15931;SDS011;8065;49.520;11.284;2023-04-12T07:38:47;4.47;;;2.60;;
15931;SDS011;8065;49.520;11.284;2023-04-12T07:41:18;3.87;;;2.50;;
15931;SDS011;8065;49.520;11.284;2023-04-12T07:43:47;3.33;;;2.57;;
15931;SDS011;8065;49.520;11.284;2023-04-12T07:46:14;4.53;;;2.47;;
15931;SDS011;8065;49.520;11.284;2023-04-12T07:48:40;2.97;;;1.87;;
15931;SDS011;8065;49.520;11.284;2023-04-12T07:51:07;4.30;;;2.57;;
15931;SDS011;8065;49.520;11.284;2023-04-12T07:53:34;3.03;;;2.13;;
15931;SDS011;8065;49.520;11.284;2023-04-12T07:56:00;4.73;;;2.33;;
15931;SDS011;8065;49.520;11.284;2023-04-12T07:58:29;5.57;;;2.00;;
15931;SDS011;8065;49.520;11.284;2023-04-12T08:00:57;2.97;;;2.13;;
15931;SDS011;8065;49.520;11.284;2023-04-12T08:03:23;4.57;;;2.30;;
15931;SDS011;8065;49.520;11.284;2023-04-12T08:05:51;2.90;;;1.93;;
15931;SDS011;8065;49.520;11.284;2023-04-12T08:08:18;5.07;;;2.50;;
15931;SDS011;8065;49.520;11.284;2023-04-12T08:10:46;4.73;;;2.80;;
15931;SDS011;8065;49.520;11.284;2023-04-12T08:13:12;3.57;;;2.60;;
15931;SDS011;8065;49.520;11.284;2023-04-12T08:15:39;3.83;;;2.20;;
15931;SDS011;8065;49.520;11.284;2023-04-12T08:18:09;5.07;;;2.27;;
15931;SDS011;8065;49.520;11.284;2023-04-12T08:20:35;3.07;;;2.50;;
15931;SDS011;8065;49.520;11.284;2023-04-12T08:23:04;3.63;;;2.10;;
15931;SDS011;8065;49.520;11.284;2023-04-12T08:25:31;2.77;;;2.57;;
15931;SDS011;8065;49.520;11.284;2023-04-12T08:27:58;3.20;;;2.90;;
15931;SDS011;8065;49.520;11.284;2023-04-12T08:30:24;3.17;;;2.20;;
15931;SDS011;8065;49.520;11.284;2023-04-12T08:32:52;4.27;;;3.00;;
15931;SDS011;8065;49.520;11.284;2023-04-12T08:35:20;3.17;;;2.10;;
15931;SDS011;8065;49.520;11.284;2023-04-12T08:37:47;6.70;;;2.13;;
15931;SDS011;8065;49.520;11.284;2023-04-12T08:40:14;8.90;;;2.63;;
15931;SDS011;8065;49.520;11.284;2023-04-12T08:42:40;4.30;;;2.10;;
15931;SDS011;8065;49.520;11.284;2023-04-12T08:45:08;3.67;;;2.20;;
15931;SDS011;8065;49.520;11.284;2023-04-12T08:47:36;2.63;;;2.30;;
15931;SDS011;8065;49.520;11.284;2023-04-12T08:50:04;4.30;;;2.87;;
15931;SDS011;8065;49.520;11.284;2023-04-12T08:52:35;2.50;;;2.30;;
15931;SDS011;8065;49.520;11.284;2023-04-12T08:55:02;2.27;;;2.07;;
15931;SDS011;8065;49.520;11.284;2023-04-12T08:57:29;2.57;;;2.37;;
15931;SDS011;8065;49.520;11.284;2023-04-12T08:59:56;2.23;;;2.03;;
15931;SDS011;8065;49.520;11.284;2023-04-12T09:02:25;2.93;;;1.97;;
15931;SDS011;8065;49.520;11.284;2023-04-12T09:04:52;2.40;;;2.10;;
15931;SDS011;8065;49.520;11.284;2023-04-12T09:07:18;2.43;;;2.17;;
15931;SDS011;8065;49.520;11.284;2023-04-12T09:09:49;2.83;;;1.90;;
15931;SDS011;8065;49.520;11.284;2023-04-12T09:12:15;2.73;;;1.83;;
15931;SDS011;8065;49.520;11.284;2023-04-12T09:14:44;2.50;;;2.00;;
15931;SDS011;8065;49.520;11.284;2023-04-12T09:17:20;3.13;;;2.10;;
15931;SDS011;8065;49.520;11.284;2023-04-12T09:19:48;2.27;;;1.83;;
15931;SDS011;8065;49.520;11.284;2023-04-12T09:22:14;1.80;;;1.60;;
15931;SDS011;8065;49.520;11.284;2023-04-12T09:24:44;2.70;;;1.83;;
15931;SDS011;8065;49.520;11.284;2023-04-12T09:27:14;3.27;;;1.90;;
15931;SDS011;8065;49.520;11.284;2023-04-12T09:29:40;2.60;;;2.20;;
15931;SDS011;8065;49.520;11.284;2023-04-12T09:32:09;2.03;;;1.93;;
15931;SDS011;8065;49.520;11.284;2023-04-12T09:34:36;1.87;;;1.77;;
15931;SDS011;8065;49.520;11.284;2023-04-12T09:37:10;3.13;;;2.10;;
15931;SDS011;8065;49.520;11.284;2023-04-12T09:39:38;2.07;;;1.90;;
15931;SDS011;8065;49.520;11.284;2023-04-12T09:42:05;2.20;;;2.00;;
15931;SDS011;8065;49.520;11.284;2023-04-12T09:44:34;2.07;;;1.93;;
15931;SDS011;8065;49.520;11.284;2023-04-12T09:47:01;2.47;;;1.90;;
15931;SDS011;8065;49.520;11.284;2023-04-12T09:49:34;1.80;;;1.70;;
15931;SDS011;8065;49.520;11.284;2023-04-12T09:52:03;2.53;;;2.33;;
15931;SDS011;8065;49.520;11.284;2023-04-12T09:54:30;1.80;;;1.70;;
15931;SDS011;8065;49.520;11.284;2023-04-12T09:57:02;2.50;;;1.90;;
15931;SDS011;8065;49.520;11.284;2023-04-12T09:59:31;2.40;;;2.10;;
15931;SDS011;8065;49.520;11.284;2023-04-12T10:02:05;2.00;;;1.70;;
15931;SDS011;8065;49.520;11.284;2023-04-12T10:04:35;2.23;;;2.00;;
15931;SDS011;8065;49.520;11.284;2023-04-12T10:07:04;2.67;;;1.80;;
15931;SDS011;8065;49.520;11.284;2023-04-12T10:09:31;2.17;;;1.80;;
15931;SDS011;8065;49.520;11.284;2023-04-12T10:11:58;2.27;;;2.00;;
15931;SDS011;8065;49.520;11.284;2023-04-12T10:14:27;2.07;;;1.90;;
15931;SDS011;8065;49.520;11.284;2023-04-12T10:16:57;2.40;;;2.20;;
15931;SDS011;8065;49.520;11.284;2023-04-12T10:19:25;2.63;;;1.80;;
15931;SDS011;8065;49.520;11.284;2023-04-12T10:21:53;2.13;;;1.60;;
15931;SDS011;8065;49.520;11.284;2023-04-12T10:24:20;2.27;;;1.60;;
15931;SDS011;8065;49.520;11.284;2023-04-12T10:26:47;1.83;;;1.50;;
15931;SDS011;8065;49.520;11.284;2023-04-12T10:29:21;1.30;;;1.30;;
15931;SDS011;8065;49.520;11.284;2023-04-12T10:31:49;2.00;;;1.60;;
15931;SDS011;8065;49.520;11.284;2023-04-12T10:34:17;2.07;;;1.87;;
15931;SDS011;8065;49.520;11.284;2023-04-12T10:36:51;2.00;;;1.90;;
15931;SDS011;8065;49.520;11.284;2023-04-12T10:39:33;2.43;;;2.23;;
15931;SDS011;8065;49.520;11.284;2023-04-12T10:42:14;4.27;;;2.30;;
15931;SDS011;8065;49.520;11.284;2023-04-12T10:44:46;2.10;;;2.00;;
15931;SDS011;8065;49.520;11.284;2023-04-12T10:47:14;2.50;;;2.10;;
15931;SDS011;8065;49.520;11.284;2023-04-12T10:49:44;2.50;;;2.30;;
15931;SDS011;8065;49.520;11.284;2023-04-12T10:55:51;10.93;;;7.93;;
15931;SDS011;8065;49.520;11.284;2023-04-12T11:01:22;3.83;;;3.43;;
15931;SDS011;8065;49.520;11.284;2023-04-12T11:04:11;3.17;;;2.80;;
15931;SDS011;8065;49.520;11.284;2023-04-12T11:09:29;3.57;;;2.33;;
15931;SDS011;8065;49.520;11.284;2023-04-12T11:12:10;6.97;;;6.47;;
15931;SDS011;8065;49.520;11.284;2023-04-12T11:14:42;4.10;;;3.70;;
15931;SDS011;8065;49.520;11.284;2023-04-12T11:17:23;3.50;;;3.20;;
15931;SDS011;8065;49.520;11.284;2023-04-12T11:19:52;3.80;;;3.20;;
15931;SDS011;8065;49.520;11.284;2023-04-12T11:22:22;7.10;;;5.90;;
15931;SDS011;8065;49.520;11.284;2023-04-12T11:24:50;2.23;;;1.97;;
15931;SDS011;8065;49.520;11.284;2023-04-12T11:27:18;3.13;;;2.60;;
15931;SDS011;8065;49.520;11.284;2023-04-12T11:29:47;2.50;;;2.30;;
15931;SDS011;8065;49.520;11.284;2023-04-12T11:32:14;2.30;;;2.10;;
15931;SDS011;8065;49.520;11.284;2023-04-12T11:34:42;2.13;;;2.03;;
15931;SDS011;8065;49.520;11.284;2023-04-12T11:37:10;3.37;;;2.43;;
15931;SDS011;8065;49.520;11.284;2023-04-12T11:39:39;8.43;;;5.70;;
15931;SDS011;8065;49.520;11.284;2023-04-12T11:42:06;5.57;;;2.70;;
15931;SDS011;8065;49.520;11.284;2023-04-12T11:44:39;5.17;;;2.97;;
15931;SDS011;8065;49.520;11.284;2023-04-12T11:47:11;3.23;;;2.93;;
15931;SDS011;8065;49.520;11.284;2023-04-12T11:49:42;3.20;;;2.80;;
15931;SDS011;8065;49.520;11.284;2023-04-12T11:52:09;3.33;;;2.97;;
15931;SDS011;8065;49.520;11.284;2023-04-12T11:54:40;5.47;;;2.90;;
15931;SDS011;8065;49.520;11.284;2023-04-12T11:57:09;5.73;;;3.10;;
15931;SDS011;8065;49.520;11.284;2023-04-12T11:59:37;3.00;;;2.60;;
15931;SDS011;8065;49.520;11.284;2023-04-12T12:02:04;3.10;;;2.80;;
15931;SDS011;8065;49.520;11.284;2023-04-12T12:04:32;3.33;;;3.03;;
15931;SDS011;8065;49.520;11.284;2023-04-12T12:06:59;3.13;;;2.83;;
15931;SDS011;8065;49.520;11.284;2023-04-12T12:09:26;5.17;;;3.47;;
15931;SDS011;8065;49.520;11.284;2023-04-12T12:11:54;2.70;;;2.50;;
15931;SDS011;8065;49.520;11.284;2023-04-12T12:14:21;3.10;;;2.80;;
15931;SDS011;8065;49.520;11.284;2023-04-12T12:16:53;6.67;;;3.43;;
15931;SDS011;8065;49.520;11.284;2023-04-12T12:19:27;3.23;;;2.93;;
15931;SDS011;8065;49.520;11.284;2023-04-12T12:22:04;3.00;;;2.70;;
15931;SDS011;8065;49.520;11.284;2023-04-12T12:24:32;2.90;;;2.50;;
15931;SDS011;8065;49.520;11.284;2023-04-12T12:27:01;3.10;;;2.80;;
15931;SDS011;8065;49.520;11.284;2023-04-12T12:29:33;6.37;;;3.50;;
15931;SDS011;8065;49.520;11.284;2023-04-12T12:32:00;3.87;;;3.37;;
15931;SDS011;8065;49.520;11.284;2023-04-12T12:34:30;4.33;;;2.97;;
15931;SDS011;8065;49.520;11.284;2023-04-12T12:36:59;3.43;;;3.07;;
15931;SDS011;8065;49.520;11.284;2023-04-12T12:39:25;3.43;;;3.20;;
15931;SDS011;8065;49.520;11.284;2023-04-12T12:41:52;4.37;;;3.10;;
15931;SDS011;8065;49.520;11.284;2023-04-12T12:44:21;5.00;;;3.17;;
15931;SDS011;8065;49.520;11.284;2023-04-12T12:46:48;3.37;;;3.07;;
15931;SDS011;8065;49.520;11.284;2023-04-12T12:49:15;3.87;;;3.00;;
15931;SDS011;8065;49.520;11.284;2023-04-12T12:51:42;3.30;;;2.80;;
15931;SDS011;8065;49.520;11.284;2023-04-12T12:54:08;3.30;;;2.80;;
15931;SDS011;8065;49.520;11.284;2023-04-12T12:56:35;3.53;;;3.00;;
15931;SDS011;8065;49.520;11.284;2023-04-12T12:59:01;3.37;;;3.07;;
15931;SDS011;8065;49.520;11.284;2023-04-12T13:01:29;4.37;;;2.90;;
15931;SDS011;8065;49.520;11.284;2023-04-12T13:03:56;7.43;;;4.23;;
15931;SDS011;8065;49.520;11.284;2023-04-12T13:06:22;3.30;;;3.00;;
15931;SDS011;8065;49.520;11.284;2023-04-12T13:08:52;6.97;;;4.57;;
15931;SDS011;8065;49.520;11.284;2023-04-12T13:11:19;5.93;;;3.73;;
15931;SDS011;8065;49.520;11.284;2023-04-12T13:13:45;3.00;;;2.80;;
15931;SDS011;8065;49.520;11.284;2023-04-12T13:16:13;4.60;;;3.10;;
15931;SDS011;8065;49.520;11.284;2023-04-12T13:18:42;3.00;;;2.80;;
15931;SDS011;8065;49.520;11.284;2023-04-12T13:21:08;3.23;;;2.93;;
15931;SDS011;8065;49.520;11.284;2023-04-12T13:23:35;3.80;;;2.80;;
15931;SDS011;8065;49.520;11.284;2023-04-12T13:26:01;142.00;;;70.17;;
15931;SDS011;8065;49.520;11.284;2023-04-12T13:28:28;200.90;;;82.10;;
15931;SDS011;8065;49.520;11.284;2023-04-12T13:30:55;367.07;;;144.73;;
15931;SDS011;8065;49.520;11.284;2023-04-12T13:33:21;83.37;;;39.93;;
15931;SDS011;8065;49.520;11.284;2023-04-12T13:35:49;5.40;;;4.90;;
15931;SDS011;8065;49.520;11.284;2023-04-12T13:38:16;7.60;;;6.27;;
15931;SDS011;8065;49.520;11.284;2023-04-12T13:40:42;6.03;;;5.63;;
15931;SDS011;8065;49.520;11.284;2023-04-12T13:43:09;4.63;;;4.20;;
15931;SDS011;8065;49.520;11.284;2023-04-12T13:45:35;4.87;;;4.43;;
15931;SDS011;8065;49.520;11.284;2023-04-12T13:48:02;5.17;;;4.47;;
15931;SDS011;8065;49.520;11.284;2023-04-12T13:50:28;5.27;;;4.03;;
15931;SDS011;8065;49.520;11.284;2023-04-12T13:52:57;4.87;;;3.70;;
15931;SDS011;8065;49.520;11.284;2023-04-12T13:55:23;4.50;;;3.60;;
15931;SDS011;8065;49.520;11.284;2023-04-12T13:57:50;3.90;;;3.60;;
15931;SDS011;8065;49.520;11.284;2023-04-12T14:00:17;18.47;;;16.50;;
15931;SDS011;8065;49.520;11.284;2023-04-12T14:02:44;6.10;;;5.30;;
15931;SDS011;8065;49.520;11.284;2023-04-12T14:05:11;4.77;;;4.27;;
15931;SDS011;8065;49.520;11.284;2023-04-12T14:07:37;5.20;;;4.80;;
15931;SDS011;8065;49.520;11.284;2023-04-12T14:10:06;6.27;;;5.10;;
15931;SDS011;8065;49.520;11.284;2023-04-12T14:12:33;5.37;;;4.87;;
15931;SDS011;8065;49.520;11.284;2023-04-12T14:15:00;4.53;;;4.13;;
15931;SDS011;8065;49.520;11.284;2023-04-12T14:17:26;4.40;;;4.00;;
15931;SDS011;8065;49.520;11.284;2023-04-12T14:19:56;4.47;;;3.70;;
15931;SDS011;8065;49.520;11.284;2023-04-12T14:22:22;4.97;;;4.07;;
15931;SDS011;8065;49.520;11.284;2023-04-12T14:24:49;14.63;;;6.30;;
15931;SDS011;8065;49.520;11.284;2023-04-12T14:27:16;4.40;;;4.00;;
15931;SDS011;8065;49.520;11.284;2023-04-12T14:29:43;4.40;;;4.00;;
15931;SDS011;8065;49.520;11.284;2023-04-12T14:32:10;3.73;;;3.40;;
15931;SDS011;8065;49.520;11.284;2023-04-12T14:34:36;4.77;;;4.37;;
15931;SDS011;8065;49.520;11.284;2023-04-12T14:37:03;4.60;;;4.20;;
15931;SDS011;8065;49.520;11.284;2023-04-12T14:39:30;4.47;;;4.07;;
15931;SDS011;8065;49.520;11.284;2023-04-12T14:41:57;5.67;;;4.37;;
15931;SDS011;8065;49.520;11.284;2023-04-12T14:44:24;4.77;;;4.10;;
15931;SDS011;8065;49.520;11.284;2023-04-12T14:46:51;3.83;;;3.53;;
15931;SDS011;8065;49.520;11.284;2023-04-12T14:49:17;5.63;;;3.73;;
15931;SDS011;8065;49.520;11.284;2023-04-12T14:51:44;5.23;;;4.73;;
15931;SDS011;8065;49.520;11.284;2023-04-12T14:54:10;6.90;;;6.20;;
15931;SDS011;8065;49.520;11.284;2023-04-12T14:56:37;7.50;;;5.30;;
15931;SDS011;8065;49.520;11.284;2023-04-12T14:59:03;5.47;;;4.73;;
15931;SDS011;8065;49.520;11.284;2023-04-12T15:01:31;4.20;;;3.50;;
15931;SDS011;8065;49.520;11.284;2023-04-12T15:03:58;3.40;;;3.00;;